Time;durP1;ratioP1;P1;durP2;ratioP2;P2;SDS_P1;SDS_P2;PMS_P1;PMS_P2;Temp;Humidity;BMP_temperature;BMP_pressure;BME280_temperature;BME280_humidity;BME280_pressure;Samples;Min_cycle;Max_cycle;Signal;HPM_P1;HPM_P2
2022/12/18 00:01:20;;;;;;;28.58;11.98;;;;;;;-148.88;100.00;79422.88;5015828;28;20084;-85
2022/12/18 00:03:46;;;;;;;29.95;11.63;;;;;;;-148.88;100.00;79418.81;5014318;28;20439;-86
2022/12/18 00:06:13;;;;;;;34.92;12.00;;;;;;;-148.88;100.00;79414.75;5016143;28;20030;-86
2022/12/18 00:08:39;;;;;;;32.03;12.57;;;;;;;-148.88;100.00;79418.81;5016637;28;20022;-86
2022/12/18 00:11:05;;;;;;;33.15;12.38;;;;;;;-148.88;100.00;79414.75;5014241;28;20071;-86
2022/12/18 00:13:31;;;;;;;29.25;11.73;;;;;;;-148.88;100.00;79402.56;5014944;28;20341;-86
2022/12/18 00:16:04;;;;;;;30.55;11.40;;;;;;;-148.88;100.00;79406.63;5014994;28;20079;-86
2022/12/18 00:18:29;;;;;;;;;;;;;;;-148.88;100.00;79402.56;5015802;28;20029;-85
2022/12/18 00:20:58;;;;;;;34.97;12.77;;;;;;;-148.88;100.00;79400.53;5015260;28;19909;-86
2022/12/18 00:23:24;;;;;;;28.58;11.25;;;;;;;-148.88;100.00;79386.28;5014521;28;20105;-86
2022/12/18 00:25:49;;;;;;;26.88;11.00;;;;;;;-148.88;100.00;79394.41;5014431;28;20499;-84
2022/12/18 00:28:14;;;;;;;25.83;10.82;;;;;;;-148.88;100.00;79406.63;5014668;28;20026;-84
2022/12/18 00:30:40;;;;;;;26.83;10.63;;;;;;;-148.88;100.00;79414.75;5013462;28;20120;-87
2022/12/18 00:33:05;;;;;;;29.70;11.32;;;;;;;-148.88;100.00;79410.69;5014810;28;20036;-86
2022/12/18 00:35:31;;;;;;;29.42;10.60;;;;;;;-148.88;100.00;79402.56;5014063;28;20026;-86
2022/12/18 00:37:56;;;;;;;28.73;10.65;;;;;;;-148.88;100.00;79402.56;5014065;28;20014;-86
2022/12/18 00:40:22;;;;;;;28.08;10.90;;;;;;;-148.88;100.00;79406.63;5015479;28;20025;-86
2022/12/18 00:42:56;;;;;;;25.48;9.75;;;;;;;-148.88;100.00;79398.47;5015292;28;20108;-86
2022/12/18 00:45:26;;;;;;;26.30;9.95;;;;;;;-148.88;100.00;79412.72;5013085;28;20456;-86
2022/12/18 00:47:52;;;;;;;27.15;9.77;;;;;;;-148.88;100.00;79418.81;5014186;28;20049;-86
2022/12/18 00:50:18;;;;;;;25.98;10.32;;;;;;;-148.88;100.00;79418.81;5013798;28;20076;-85
2022/12/18 00:52:44;;;;;;;25.60;10.10;;;;;;;-148.88;100.00;79414.75;5014139;28;20025;-86
2022/12/18 00:55:10;;;;;;;24.50;9.85;;;;;;;-148.88;100.00;79418.81;5012608;28;20373;-86
2022/12/18 00:57:35;;;;;;;23.77;9.25;;;;;;;-148.88;100.00;79420.84;5013578;28;20028;-86
2022/12/18 01:00:01;;;;;;;33.65;11.70;;;;;;;-148.88;100.00;79426.94;5013157;28;20113;-86
2022/12/18 01:02:26;;;;;;;24.95;10.52;;;;;;;-148.88;100.00;79431.00;5012871;28;20105;-86
2022/12/18 01:04:52;;;;;;;22.02;9.52;;;;;;;-148.88;100.00;79437.13;5012823;28;20036;-85
2022/12/18 01:07:17;;;;;;;25.73;9.48;;;;;;;-148.88;100.00;79435.06;5013095;28;20471;-85
2022/12/18 01:09:42;;;;;;;28.60;9.77;;;;;;;-148.88;100.00;79431.00;5012485;28;20030;-86
2022/12/18 01:12:07;;;;;;;28.10;9.98;;;;;;;-148.88;100.00;79443.22;5012141;28;20033;-86
2022/12/18 01:14:33;;;;;;;25.67;9.20;;;;;;;-148.88;100.00;79441.19;5013454;28;20511;-86
2022/12/18 01:16:58;;;;;;;23.30;9.68;;;;;;;-148.88;100.00;79441.19;5013768;28;20032;-86
2022/12/18 01:19:23;;;;;;;22.60;9.70;;;;;;;-148.88;100.00;79435.06;5013852;28;20142;-85
2022/12/18 01:21:49;;;;;;;20.55;8.60;;;;;;;-148.88;100.00;79431.00;5014420;28;20477;-87
2022/12/18 01:24:15;;;;;;;29.42;10.32;;;;;;;-148.88;100.00;79431.00;5014524;28;20101;-87
2022/12/18 01:26:40;;;;;;;23.20;8.63;;;;;;;-148.88;100.00;79435.06;5014294;28;20377;-86
2022/12/18 01:29:05;;;;;;;25.17;8.75;;;;;;;-148.88;100.00;79435.06;5013910;28;20091;-87
2022/12/18 01:31:33;;;;;;;23.25;9.73;;;;;;;-148.88;100.00;79439.16;5015031;28;20510;-87
2022/12/18 01:34:01;;;;;;;24.00;9.25;;;;;;;-148.88;100.00;79443.22;5015778;28;20037;-87
2022/12/18 01:36:32;;;;;;;23.30;8.68;;;;;;;-148.88;100.00;79453.38;5015081;28;20116;-86
2022/12/18 01:39:03;;;;;;;29.35;10.48;;;;;;;-148.88;100.00;79459.47;5014302;28;20440;-86
2022/12/18 01:42:01;;;;;;;26.35;10.88;;;;;;;-148.88;100.00;79459.47;5014617;28;20029;-86
2022/12/18 01:44:55;;;;;;;29.02;11.52;;;;;;;-148.88;100.00;79467.59;5013951;28;20087;-86
2022/12/18 01:47:29;;;;;;;32.97;13.55;;;;;;;-148.88;100.00;79471.69;5012868;28;20044;-86
2022/12/18 01:49:57;;;;;;;26.52;10.80;;;;;;;-148.88;100.00;79467.59;5013813;28;20030;-86
2022/12/18 01:52:25;;;;;;;23.45;9.23;;;;;;;-148.88;100.00;79483.88;5014212;28;20033;-86
2022/12/18 01:54:52;;;;;;;24.67;8.88;;;;;;;-148.88;100.00;79483.88;5012656;28;20018;-86
2022/12/18 01:57:17;;;;;;;29.48;9.50;;;;;;;-148.88;100.00;79487.94;5014210;28;20097;-86
2022/12/18 01:59:47;;;;;;;28.13;9.18;;;;;;;-148.88;100.00;79475.75;5014177;28;20128;-86
2022/12/18 02:02:14;;;;;;;21.23;8.00;;;;;;;-148.88;100.00;79479.81;5013195;28;20121;-86
2022/12/18 02:04:39;;;;;;;25.88;9.55;;;;;;;-148.88;100.00;79475.75;5014726;28;20159;-87
2022/12/18 02:07:31;;;;;;;23.30;7.97;;;;;;;-148.88;100.00;79483.88;5012768;28;20532;-86
2022/12/18 02:10:21;;;;;;;22.83;7.40;;;;;;;-148.88;100.00;79479.81;5012245;28;20502;-86
2022/12/18 02:13:04;;;;;;;22.95;8.98;;;;;;;-148.88;100.00;79485.91;5014959;28;20030;-86
2022/12/18 02:16:01;;;;;;;19.33;8.25;;;;;;;-148.88;100.00;79479.81;5013043;28;20018;-86
2022/12/18 02:18:35;;;;;;;24.55;9.18;;;;;;;-148.88;100.00;79479.81;5005862;28;20052;-85
2022/12/18 02:21:13;;;;;;;;;;;;;;;-148.88;100.00;79479.81;5015455;28;20084;-85
2022/12/18 02:24:29;;;;;;;23.52;7.75;;;;;;;-148.88;100.00;79483.88;5016192;28;19913;-86
2022/12/18 02:27:03;;;;;;;16.98;7.55;;;;;;;-148.88;100.00;79492.00;4982845;28;20131;-86
2022/12/18 02:29:40;;;;;;;23.92;8.48;;;;;;;-148.88;100.00;79496.06;5014800;28;20116;-86
2022/12/18 02:32:11;;;;;;;19.63;7.40;;;;;;;-148.88;100.00;79489.97;5016114;28;20489;-86
2022/12/18 02:34:39;;;;;;;21.15;7.93;;;;;;;-148.88;100.00;79477.78;5015814;28;20076;-86
2022/12/18 02:37:10;;;;;;;24.70;7.60;;;;;;;-148.88;100.00;79479.81;5016008;28;20029;-86
2022/12/18 02:39:40;;;;;;;24.30;8.65;;;;;;;-148.88;100.00;79465.56;5016319;28;20053;-86
2022/12/18 02:42:08;;;;;;;20.45;7.18;;;;;;;-148.88;100.00;79467.59;5016160;28;20483;-86
2022/12/18 02:44:35;;;;;;;19.20;8.50;;;;;;;-148.88;100.00;79461.50;5016089;28;20085;-86
2022/12/18 02:50:35;;;;;;;23.90;8.05;;;;;;;-148.88;100.00;79455.41;5015696;28;20041;-85
2022/12/18 02:53:14;;;;;;;21.17;8.25;;;;;;;-148.88;100.00;79475.75;5015414;28;20029;-85
2022/12/18 02:56:05;;;;;;;24.30;8.50;;;;;;;-148.88;100.00;79467.59;5015405;28;20026;-85
2022/12/18 02:58:55;;;;;;;27.45;8.93;;;;;;;-148.88;100.00;79479.81;5015498;28;20058;-85
2022/12/18 03:01:35;;;;;;;24.17;8.18;;;;;;;-148.88;100.00;79479.81;5014790;28;20022;-86
2022/12/18 03:04:12;;;;;;;23.75;8.73;;;;;;;-148.88;100.00;79494.03;5015345;28;20030;-86
2022/12/18 03:06:45;;;;;;;22.17;8.32;;;;;;;-148.88;100.00;79500.13;5013708;28;20025;-85
2022/12/18 03:09:21;;;;;;;17.73;7.63;;;;;;;-148.88;100.00;79504.19;5015009;28;20026;-86
2022/12/18 03:14:42;;;;;;;25.33;7.93;;;;;;;-148.88;100.00;79508.28;5014891;28;20036;-86
2022/12/18 03:17:13;;;;;;;21.98;8.25;;;;;;;-148.88;100.00;79510.31;5014832;28;20053;-86
2022/12/18 03:19:40;;;;;;;22.05;7.35;;;;;;;-148.88;100.00;79512.34;5015001;28;20096;-86
2022/12/18 03:22:07;;;;;;;20.48;7.68;;;;;;;-148.88;100.00;79510.31;5015178;28;20029;-86
2022/12/18 03:24:37;;;;;;;19.17;7.13;;;;;;;-148.88;100.00;79504.19;5014725;28;20384;-85
2022/12/18 03:27:06;;;;;;;18.42;7.70;;;;;;;-148.88;100.00;79504.19;5014616;28;20091;-86
2022/12/18 03:29:38;;;;;;;23.10;8.80;;;;;;;-148.88;100.00;79518.44;5013647;28;20108;-86
2022/12/18 03:32:08;;;;;;;22.60;8.02;;;;;;;-148.88;100.00;79518.44;5014437;28;20101;-86
2022/12/18 03:34:37;;;;;;;19.90;7.78;;;;;;;-148.88;100.00;79522.50;5015382;28;20041;-82
2022/12/18 03:37:03;;;;;;;22.88;8.85;;;;;;;-148.88;100.00;79522.50;5015127;28;20496;-85
2022/12/18 03:43:11;;;;;;;21.33;8.77;;;;;;;-148.88;100.00;79548.94;5015854;28;20044;-83
2022/12/18 03:45:42;;;;;;;22.50;8.98;;;;;;;-148.88;100.00;79544.88;5016542;28;20429;-83
2022/12/18 03:48:31;;;;;;;18.67;7.80;;;;;;;-148.88;100.00;79553.00;5015273;28;20069;-84
2022/12/18 03:51:07;;;;;;;18.20;8.05;;;;;;;-148.88;100.00;79557.06;5015023;28;20128;-84
2022/12/18 03:53:41;;;;;;;23.15;8.13;;;;;;;-148.88;100.00;79555.03;5016070;28;20029;-83
2022/12/18 03:56:08;;;;;;;24.10;8.38;;;;;;;-148.88;100.00;79565.19;5015572;28;20124;-83
2022/12/18 03:58:37;;;;;;;27.90;10.18;;;;;;;-148.88;100.00;79548.94;5014816;28;20053;-82
2022/12/18 04:01:08;;;;;;;21.48;8.27;;;;;;;-148.88;100.00;79524.53;5014953;28;20061;-84
2022/12/18 04:03:35;;;;;;;24.30;8.18;;;;;;;-148.88;100.00;79512.34;5014557;28;20036;-82
2022/12/18 04:06:01;;;;;;;25.88;9.27;;;;;;;-148.88;100.00;79512.34;5015536;28;20018;-84
2022/12/18 04:08:28;;;;;;;25.30;9.00;;;;;;;-148.88;100.00;79508.28;5015874;28;20109;-84
2022/12/18 04:10:54;;;;;;;26.95;10.23;;;;;;;-148.88;100.00;79534.69;5014280;28;20033;-85
2022/12/18 04:13:32;;;;;;;28.00;10.02;;;;;;;-148.88;100.00;79563.16;5014079;28;20018;-86
2022/12/18 04:15:58;;;;;;;27.00;10.88;;;;;;;-148.88;100.00;79565.19;5014208;28;20022;-85
2022/12/18 04:18:23;;;;;;;34.83;12.13;;;;;;;-148.88;100.00;79575.38;5014267;28;20080;-85
2022/12/18 04:20:49;;;;;;;25.33;9.95;;;;;;;-148.88;100.00;79585.53;5013533;28;20056;-84
2022/12/18 04:23:14;;;;;;;27.42;11.02;;;;;;;-148.88;100.00;79581.47;5013732;28;20456;-83
2022/12/18 04:25:39;;;;;;;25.35;10.00;;;;;;;-148.88;100.00;79575.38;5013530;28;20032;-84
2022/12/18 04:28:05;;;;;;;21.75;9.57;;;;;;;-148.88;100.00;79569.25;5013479;28;20054;-84
2022/12/18 04:30:30;;;;;;;19.23;8.23;;;;;;;-148.88;100.00;79575.38;5013790;28;20037;-84
2022/12/18 04:32:55;;;;;;;22.65;8.73;;;;;;;-148.88;100.00;79579.44;5013847;28;20057;-84
2022/12/18 04:35:21;;;;;;;23.67;10.32;;;;;;;-148.88;100.00;79587.56;5013577;28;20072;-84
2022/12/18 04:37:46;;;;;;;23.65;10.23;;;;;;;-148.88;100.00;79581.47;5013457;28;20388;-84
2022/12/18 04:40:12;;;;;;;24.48;10.20;;;;;;;-148.88;100.00;79587.56;5013792;28;20179;-85
2022/12/18 04:42:39;;;;;;;25.75;11.27;;;;;;;-148.88;100.00;79599.75;5013641;28;20029;-84
2022/12/18 04:45:05;;;;;;;24.33;9.38;;;;;;;-148.88;100.00;79591.63;5012725;28;20053;-84
2022/12/18 04:47:30;;;;;;;25.55;11.27;;;;;;;-148.88;100.00;79591.63;5012298;28;20064;-84
2022/12/18 04:49:56;;;;;;;22.95;10.38;;;;;;;-148.88;100.00;79599.75;5013773;28;20026;-84
2022/12/18 04:52:21;;;;;;;28.83;11.00;;;;;;;-148.88;100.00;79605.84;5013883;28;20022;-84
2022/12/18 04:54:46;;;;;;;25.02;10.82;;;;;;;-148.88;100.00;79614.00;5013317;28;20061;-84
2022/12/18 04:57:12;;;;;;;25.52;11.15;;;;;;;-148.88;100.00;79626.19;5013392;28;20030;-84
2022/12/18 04:59:37;;;;;;;29.83;10.38;;;;;;;-148.88;100.00;79628.22;5012136;28;20030;-84
2022/12/18 05:02:02;;;;;;;27.70;9.60;;;;;;;-148.88;100.00;79632.28;5013283;28;20022;-84
2022/12/18 05:04:28;;;;;;;28.80;10.10;;;;;;;-148.88;100.00;79638.38;5013197;28;20021;-83
2022/12/18 05:06:53;;;;;;;28.00;10.70;;;;;;;-148.88;100.00;79640.44;5011721;28;20026;-84
2022/12/18 05:09:18;;;;;;;24.30;9.50;;;;;;;-148.88;100.00;79626.19;5013310;28;20480;-83
2022/12/18 05:11:44;;;;;;;30.55;9.48;;;;;;;-148.88;100.00;79605.84;5013351;28;20068;-83
2022/12/18 05:14:09;;;;;;;25.02;10.38;;;;;;;-148.88;100.00;79589.59;5013324;28;20065;-84
2022/12/18 05:16:34;;;;;;;21.27;8.73;;;;;;;-148.88;100.00;79581.47;5012837;28;20022;-82
2022/12/18 05:18:59;;;;;;;21.88;8.65;;;;;;;-148.88;100.00;79569.25;5014880;28;20148;-82
2022/12/18 05:21:25;;;;;;;26.20;9.30;;;;;;;-148.88;100.00;79559.09;5015423;28;20026;-82
2022/12/18 05:23:50;;;;;;;24.88;9.68;;;;;;;-148.88;100.00;79553.00;5014014;28;20029;-82
2022/12/18 05:26:17;;;;;;;28.02;9.77;;;;;;;-148.88;100.00;79559.09;5014319;28;20036;-82
2022/12/18 05:28:43;;;;;;;25.90;10.95;;;;;;;-148.88;100.00;79569.25;5013782;28;20030;-83
2022/12/18 05:31:09;;;;;;;27.42;12.18;;;;;;;-148.88;100.00;79593.66;5013056;28;20033;-83
2022/12/18 05:33:35;;;;;;;30.95;10.57;;;;;;;-148.88;100.00;79599.75;5012392;28;20038;-83
2022/12/18 05:36:02;;;;;;;29.65;11.23;;;;;;;-148.88;100.00;79614.00;5012676;28;20026;-83
2022/12/18 05:38:30;;;;;;;29.98;12.00;;;;;;;-148.88;100.00;79620.09;5013451;28;20030;-82
2022/12/18 05:40:56;;;;;;;27.10;11.07;;;;;;;-148.88;100.00;79618.06;5013597;28;20054;-81
2022/12/18 05:43:23;;;;;;;24.40;10.80;;;;;;;-148.88;100.00;79632.28;5012079;28;20030;-81
2022/12/18 05:45:50;;;;;;;27.00;12.00;;;;;;;-148.88;100.00;79638.38;5014506;28;20030;-82
2022/12/18 05:48:16;;;;;;;26.45;10.65;;;;;;;-148.88;100.00;79650.59;5012630;28;20036;-83
2022/12/18 05:50:45;;;;;;;27.95;12.93;;;;;;;-148.88;100.00;79662.78;5012352;28;20022;-82
2022/12/18 05:53:10;;;;;;;27.00;11.25;;;;;;;-148.88;100.00;79666.84;5013090;28;20109;-83
2022/12/18 05:55:40;;;;;;;30.33;11.00;;;;;;;-148.88;100.00;79683.13;5036080;22;20176;-81
2022/12/18 05:58:07;;;;;;;28.65;12.20;;;;;;;-148.88;100.00;79672.97;5017097;28;20030;-83
2022/12/18 06:00:34;;;;;;;20.92;8.88;;;;;;;-148.88;100.00;79662.78;5015303;28;20025;-83
2022/12/18 06:03:00;;;;;;;21.45;8.55;;;;;;;-148.88;100.00;79650.59;5016426;28;20052;-83
2022/12/18 06:05:26;;;;;;;23.40;8.90;;;;;;;-148.88;100.00;79646.53;5015342;28;20052;-83
2022/12/18 06:07:51;;;;;;;24.52;8.98;;;;;;;-148.88;100.00;79642.47;5015751;28;20113;-84
2022/12/18 06:10:16;;;;;;;29.50;10.05;;;;;;;-148.88;100.00;79644.50;5015584;28;20025;-81
2022/12/18 06:12:42;;;;;;;22.90;9.43;;;;;;;-148.88;100.00;79640.44;5015370;28;20108;-82
2022/12/18 06:15:08;;;;;;;23.40;10.38;;;;;;;-148.88;100.00;79634.31;5016771;28;20033;-84
2022/12/18 06:17:34;;;;;;;28.10;10.18;;;;;;;-148.88;100.00;79638.38;5016501;28;20025;-83
2022/12/18 06:19:59;;;;;;;24.95;9.30;;;;;;;-148.88;100.00;79642.47;5015809;28;20033;-83
2022/12/18 06:22:25;;;;;;;27.48;11.23;;;;;;;-148.88;100.00;79662.78;5015077;28;20117;-87
2022/12/18 06:24:50;;;;;;;29.92;11.77;;;;;;;-148.88;100.00;79662.78;5015429;28;20041;-82
2022/12/18 06:27:16;;;;;;;30.30;12.70;;;;;;;-148.88;100.00;79681.09;5014754;28;20396;-82
2022/12/18 06:29:41;;;;;;;33.95;13.93;;;;;;;-148.88;100.00;79689.22;5016568;28;20057;-82
2022/12/18 06:32:06;;;;;;;32.20;13.38;;;;;;;-148.88;100.00;79705.50;5014976;28;20396;-82
2022/12/18 06:34:32;;;;;;;25.13;11.85;;;;;;;-148.88;100.00;79729.88;5014997;28;20076;-81
2022/12/18 06:36:58;;;;;;;30.20;13.82;;;;;;;-148.88;100.00;79735.97;5014778;28;20117;-81
2022/12/18 06:39:24;;;;;;;34.28;12.60;;;;;;;-148.88;100.00;79731.91;5014822;28;20045;-81
2022/12/18 06:41:49;;;;;;;28.90;11.63;;;;;;;-148.88;100.00;79731.91;5014954;28;20214;-81
2022/12/18 06:44:14;;;;;;;32.45;13.07;;;;;;;-148.88;100.00;79723.78;5016228;28;20030;-82
2022/12/18 06:46:40;;;;;;;34.58;11.90;;;;;;;-148.88;100.00;79711.59;5015198;28;20116;-82
2022/12/18 06:49:05;;;;;;;25.30;9.85;;;;;;;-148.88;100.00;79703.44;5015496;28;20113;-81
2022/12/18 06:51:30;;;;;;;25.23;9.95;;;;;;;-148.88;100.00;79699.38;5016128;28;20021;-82
2022/12/18 06:53:56;;;;;;;24.17;10.20;;;;;;;-148.88;100.00;79697.34;5015006;28;20029;-81
2022/12/18 06:56:21;;;;;;;23.45;9.95;;;;;;;-148.88;100.00;79689.22;5016938;28;20396;-81
2022/12/18 06:58:47;;;;;;;26.98;10.95;;;;;;;-148.88;100.00;79683.13;5024789;28;20026;-82
2022/12/18 07:01:13;;;;;;;25.30;9.90;;;;;;;-148.88;100.00;79699.38;5025276;28;20026;-81
2022/12/18 07:03:39;;;;;;;29.90;12.82;;;;;;;-148.88;100.00;79707.53;5023336;28;20095;-83
2022/12/18 07:06:06;;;;;;;33.35;11.30;;;;;;;-148.88;100.00;79705.50;5015992;28;20030;-82
2022/12/18 07:08:32;;;;;;;30.10;11.40;;;;;;;-148.88;100.00;79715.66;5014091;28;20373;-82
2022/12/18 07:10:58;;;;;;;30.38;11.57;;;;;;;-148.88;100.00;79727.84;5014884;28;20467;-81
2022/12/18 07:13:23;;;;;;;24.38;10.75;;;;;;;-148.88;100.00;79719.72;5022414;28;20534;-83
2022/12/18 07:15:49;;;;;;;19.33;10.18;;;;;;;-148.88;100.00;79719.72;5024267;28;20026;-83
2022/12/18 07:18:14;;;;;;;25.45;10.70;;;;;;;-148.88;100.00;79719.72;5025550;28;20018;-83
2022/12/18 07:20:39;;;;;;;35.22;13.25;;;;;;;-148.88;100.00;79725.81;5023719;28;20089;-82
2022/12/18 07:23:05;;;;;;;28.27;10.68;;;;;;;-148.88;100.00;79733.94;5023645;28;20018;-83
2022/12/18 07:25:37;;;;;;;28.83;11.25;;;;;;;-148.88;100.00;79727.84;5021961;28;20488;-82
2022/12/18 07:28:03;;;;;;;36.97;14.25;;;;;;;-148.88;100.00;79719.72;5022197;28;20076;-82
2022/12/18 07:30:29;;;;;;;34.33;13.80;;;;;;;-148.88;100.00;79715.66;5020997;28;20560;-83
2022/12/18 07:32:54;;;;;;;34.92;14.60;;;;;;;-148.88;100.00;79721.75;5016017;28;20053;-81
2022/12/18 07:35:19;;;;;;;35.90;13.52;;;;;;;-148.88;100.00;79713.63;5015277;28;20448;-81
2022/12/18 07:37:45;;;;;;;29.15;12.00;;;;;;;-148.88;100.00;79703.44;5014226;28;20109;-79
2022/12/18 07:40:11;;;;;;;38.55;14.43;;;;;;;-148.88;100.00;79695.31;5015612;28;20022;-82
2022/12/18 07:42:36;;;;;;;22.42;10.70;;;;;;;-148.88;100.00;79683.13;5013932;28;20049;-81
2022/12/18 07:45:03;;;;;;;27.42;11.10;;;;;;;-148.88;100.00;79683.13;5014906;28;20029;-81
2022/12/18 07:47:35;;;;;;;27.50;13.02;;;;;;;-148.88;100.00;79672.97;5015003;28;20029;-82
2022/12/18 07:50:00;;;;;;;33.17;13.52;;;;;;;-148.88;100.00;79670.91;5014932;28;20038;-81
2022/12/18 07:52:25;;;;;;;29.08;10.35;;;;;;;-148.88;100.00;79672.97;5013876;28;20017;-81
2022/12/18 07:54:50;;;;;;;30.45;11.52;;;;;;;-148.88;100.00;79666.84;5013849;28;20096;-80
2022/12/18 07:57:17;;;;;;;33.38;12.95;;;;;;;-148.88;100.00;79666.84;5013358;28;20037;-81
2022/12/18 07:59:43;;;;;;;30.08;12.80;;;;;;;-148.88;100.00;79672.97;5013453;28;20034;-81
2022/12/18 08:02:08;;;;;;;33.70;12.40;;;;;;;-148.88;100.00;79670.91;5014297;28;20554;-86
2022/12/18 08:04:35;;;;;;;29.63;11.55;;;;;;;-148.88;100.00;79679.06;5017196;28;20029;-85
2022/12/18 08:07:00;;;;;;;28.60;10.82;;;;;;;-148.88;100.00;79699.38;5015858;28;20029;-86
2022/12/18 08:09:26;;;;;;;27.20;11.13;;;;;;;-148.88;100.00;79715.66;5014706;28;20041;-85
2022/12/18 08:11:54;;;;;;;27.95;11.02;;;;;;;-148.88;100.00;79703.44;5016090;28;20025;-85
2022/12/18 08:14:19;;;;;;;50.95;21.17;;;;;;;-148.88;100.00;79691.25;5017134;28;20548;-84
2022/12/18 08:16:45;;;;;;;56.00;21.15;;;;;;;-148.88;100.00;79679.06;5013253;28;20116;-83
2022/12/18 08:19:10;;;;;;;44.67;17.83;;;;;;;-148.88;100.00;79658.72;5013447;28;20117;-84
2022/12/18 08:21:36;;;;;;;30.67;15.40;;;;;;;-148.88;100.00;79646.53;5013612;28;20125;-82
2022/12/18 08:24:04;;;;;;;35.20;14.35;;;;;;;-148.88;100.00;79638.38;5014509;28;20026;-84
2022/12/18 08:26:31;;;;;;;42.83;18.08;;;;;;;-148.88;100.00;79622.13;5013789;28;20045;-86
2022/12/18 08:29:00;;;;;;;32.67;15.70;;;;;;;-148.88;100.00;79609.94;5015160;28;20041;-84
2022/12/18 08:31:27;;;;;;;32.65;12.85;;;;;;;-148.88;100.00;79609.94;5014279;28;20064;-85
2022/12/18 08:33:56;;;;;;;36.40;15.93;;;;;;;-148.88;100.00;79607.91;5014702;28;20041;-88
2022/12/18 08:36:25;;;;;;;33.42;13.23;;;;;;;-148.88;100.00;79609.94;5015592;28;20040;-86
2022/12/18 08:38:54;;;;;;;30.63;14.05;;;;;;;-148.88;100.00;79595.69;5016142;28;20021;-85
2022/12/18 08:41:19;;;;;;;25.20;11.38;;;;;;;-148.88;100.00;79597.72;5014589;28;20091;-87
2022/12/18 08:46:36;;;;;;;25.98;12.88;;;;;;;-148.88;100.00;79565.19;5014778;28;20525;-86
2022/12/18 08:49:01;;;;;;;26.45;12.02;;;;;;;-148.88;100.00;79550.97;5013081;28;20140;-86
2022/12/18 08:51:27;;;;;;;33.85;13.93;;;;;;;-148.88;100.00;79540.81;5014385;28;20068;-86
2022/12/18 08:53:52;;;;;;;30.45;14.00;;;;;;;-148.88;100.00;79524.53;5012751;28;20026;-86
2022/12/18 08:56:18;;;;;;;29.75;13.85;;;;;;;-148.88;100.00;79512.34;5014629;28;20087;-83
2022/12/18 08:58:43;;;;;;;29.52;13.38;;;;;;;-148.88;100.00;79510.31;5017825;28;20083;-85
2022/12/18 09:01:10;;;;;;;36.08;14.55;;;;;;;-148.88;100.00;79510.31;5019908;28;20087;-85
2022/12/18 09:03:36;;;;;;;29.45;13.32;;;;;;;-148.88;100.00;79508.28;5020371;28;20391;-88
2022/12/18 09:06:02;;;;;;;27.15;12.65;;;;;;;-148.88;100.00;79496.06;5019190;28;20512;-87
2022/12/18 09:08:28;;;;;;;31.17;15.00;;;;;;;-148.88;100.00;79483.88;5017829;28;20449;-88
2022/12/18 09:10:53;;;;;;;31.38;14.13;;;;;;;-148.88;100.00;79475.75;5014884;28;20084;-85
2022/12/18 09:13:19;;;;;;;29.52;12.82;;;;;;;-148.88;100.00;79463.53;5018857;28;20042;-85
2022/12/18 09:15:49;;;;;;;25.52;11.68;;;;;;;-148.88;100.00;79451.34;5019819;28;20105;-86
2022/12/18 09:18:16;;;;;;;26.35;12.98;;;;;;;-148.88;100.00;79435.06;5019435;28;20500;-85
2022/12/18 09:20:45;;;;;;;33.17;12.00;;;;;;;-148.88;100.00;79414.75;5020374;28;20025;-86
2022/12/18 09:23:13;;;;;;;30.30;12.35;;;;;;;-148.88;100.00;79402.56;5016542;28;20462;-89
2022/12/18 09:25:47;;;;;;;24.67;12.45;;;;;;;-148.88;100.00;79390.34;5014813;28;20026;-82
2022/12/18 09:28:14;;;;;;;29.05;11.10;;;;;;;-148.88;100.00;79374.09;5014015;28;20128;-83
2022/12/18 09:30:42;;;;;;;27.20;12.52;;;;;;;-148.88;100.00;79365.97;5016807;28;20087;-84
2022/12/18 09:33:07;;;;;;;28.42;12.38;;;;;;;-148.88;100.00;79353.75;5018357;28;20022;-85
2022/12/18 09:35:36;;;;;;;25.80;11.98;;;;;;;-148.88;100.00;79341.56;5018067;28;20025;-85
2022/12/18 09:38:02;;;;;;;28.52;11.63;;;;;;;-148.88;100.00;79333.44;5019067;28;20014;-86
2022/12/18 09:40:35;;;;;;;25.63;10.93;;;;;;;-148.88;100.00;79317.16;5017753;28;20033;-84
2022/12/18 09:43:04;;;;;;;27.63;11.60;;;;;;;-148.88;100.00;79304.97;5019847;28;20408;-84
2022/12/18 09:45:43;;;;;;;28.95;12.20;;;;;;;-148.88;100.00;79292.75;5017119;28;20053;-85
2022/12/18 09:48:35;;;;;;;27.70;11.00;;;;;;;-148.88;100.00;79282.59;5017366;28;20025;-85
2022/12/18 09:51:27;;;;;;;27.35;10.55;;;;;;;-148.88;100.00;79262.28;5016900;28;20033;-87
2022/12/18 09:54:01;;;;;;;28.05;10.57;;;;;;;-148.88;100.00;79239.91;5017861;28;20033;-86
2022/12/18 09:56:55;;;;;;;24.85;11.07;;;;;;;-148.88;100.00;79215.50;5017360;28;20188;-85
2022/12/18 09:59:58;;;;;;;27.40;11.20;;;;;;;-148.88;100.00;79191.13;4981938;28;20093;-85
2022/12/18 10:02:25;;;;;;;26.65;11.65;;;;;;;-148.88;100.00;79174.84;4964655;28;20042;-85
2022/12/18 10:05:12;;;;;;;22.85;10.40;;;;;;;-148.88;100.00;79162.66;4998116;28;20105;-87
2022/12/18 10:08:13;;;;;;;28.95;11.63;;;;;;;-148.88;100.00;79154.53;4995630;28;20027;-87
2022/12/18 10:11:01;;;;;;;23.50;10.32;;;;;;;-148.88;100.00;79134.19;4964626;28;20044;-86
2022/12/18 10:13:41;;;;;;;19.00;8.50;;;;;;;-148.88;100.00;79113.88;4997051;28;20030;-87
2022/12/18 10:16:25;;;;;;;19.10;8.27;;;;;;;-148.88;100.00;79081.34;4993206;28;20034;-85
2022/12/18 10:19:25;;;;;;;16.88;7.50;;;;;;;-148.88;100.00;79046.78;5009214;28;20076;-85
2022/12/18 10:22:02;;;;;;;16.77;7.60;;;;;;;-148.88;100.00;79008.16;5018185;28;20581;-86
2022/12/18 10:25:03;;;;;;;14.70;7.65;;;;;;;-148.88;100.00;78977.66;5018048;28;20049;-87
2022/12/18 10:27:52;;;;;;;23.70;7.30;;;;;;;-148.88;100.00;78932.94;5015939;28;20121;-86
2022/12/18 10:30:21;;;;;;;20.27;8.20;;;;;;;-148.88;100.00;78914.66;5019820;28;20377;-86
2022/12/18 10:32:47;;;;;;;20.58;7.03;;;;;;;-148.88;100.00;78890.25;5019885;28;20061;-87
2022/12/18 10:35:32;;;;;;;19.27;7.05;;;;;;;-148.88;100.00;78871.97;5017333;28;20041;-86
2022/12/18 10:38:37;;;;;;;15.13;6.60;;;;;;;-148.88;100.00;78853.66;5015676;28;20099;-86
2022/12/18 10:41:30;;;;;;;17.65;6.68;;;;;;;-148.88;99.45;78821.13;5007233;28;20038;-89
2022/12/18 10:44:45;;;;;;;13.40;6.22;;;;;;;-148.88;98.94;78815.03;5004059;28;20120;-88
2022/12/18 10:47:44;;;;;;;;;;;;;;;;;;;;;
2022/12/18 10:50:24;;;;;;;13.73;6.75;;;;;;;-148.88;98.17;78776.41;5018329;28;20038;-88
2022/12/18 10:53:18;;;;;;;14.35;5.95;;;;;;;-148.88;97.14;78766.25;5016991;28;20025;-87
2022/12/18 10:55:45;;;;;;;;;;;;;;;-148.88;96.90;78739.84;5017417;28;20017;-87
2022/12/18 10:58:28;;;;;;;14.52;6.45;;;;;;;-148.88;96.39;78731.69;5014550;28;19924;-88
2022/12/18 11:01:03;;;;;;;19.33;6.17;;;;;;;-148.88;95.52;78723.56;5015692;28;20118;-86
2022/12/18 11:03:31;;;;;;;11.18;5.85;;;;;;;-148.88;95.06;78715.44;5016868;28;20113;-88
2022/12/18 11:06:11;;;;;;;14.13;6.55;;;;;;;-148.88;94.82;78703.25;5017843;28;20033;-87
2022/12/18 11:08:38;;;;;;;14.48;5.70;;;;;;;-148.88;94.28;78682.91;5018368;28;20144;-86
2022/12/18 11:11:16;;;;;;;12.52;5.35;;;;;;;-148.88;94.42;78691.03;5016938;28;20117;-88
2022/12/18 11:13:51;;;;;;;11.73;4.88;;;;;;;-148.88;93.60;78680.88;5015299;28;20435;-89
2022/12/18 11:16:20;;;;;;;9.90;4.68;;;;;;;-148.88;93.54;78686.97;5015757;28;20022;-87
2022/12/18 11:18:46;;;;;;;13.23;5.80;;;;;;;-148.88;93.38;78686.97;5017489;28;20499;-87
2022/12/18 11:21:13;;;;;;;12.45;5.30;;;;;;;-148.88;92.93;78678.84;5017032;28;20022;-87
2022/12/18 11:23:48;;;;;;;12.05;5.20;;;;;;;-148.88;91.67;78684.94;5018091;28;20567;-87
2022/12/18 11:26:14;;;;;;;10.75;4.63;;;;;;;-148.88;91.41;78691.03;5017718;28;20026;-85